McAllister, Montana
Current Conditions -  °F | °C
As of 8:56 AM on Thursday 29 Jan 2015 (Local Time) from KBZN Reporting Station
Clear Clear  
Wind Chill: 25°   Ceiling: Unl
Heat Index: 25°   Visibility: 10mi
Dew Point: 21°   Wind: 3mph
Humidity: 85%   Direction: 160°SSE
Pressure: 30.43"   Gusts: NA
Location:  45.44°N, 111.73°W
Report Text: KBZN 291556Z 16003KT 10SM CLR M04/M06 A3043 RMK AO2 SLP348 T10391061
Loading
Personal Weather Stations






























Interactive Weather Map New forecast layout! Learn more

10-Day Weather Forecast

Advertisements
Track Severe Weather on mobile